Toulon, IL

8:26 AM CST on December 03, 2016 (GMT -0600)
Maplewood | | Change Station

Elev 725 ft 41.09 °N, 89.87 °W | Updated 9 seconds ago

Overcast
Overcast
33.3 °F
Feels Like 33 °F
N
2.9
Wind Variable Wind from SSE
Gusts 4.9 mph

Today
High -- | Low -- °F
--% Chance of Precip.
Yesterday
High -- | Low -- °F
Precip. -- in
Pressure 30.34 in
Visibility 10.0 miles
Clouds Overcast 2700 ft
Windchill 33 °F
Dew Point 25 °F
Humidity 71%
Rainfall 0.00 in
Snow Depth Not available.
7:07 AM 4:31 PM
Waxing Crescent, 15% visible
METAR KC75 031415Z AUTO 01005KT 10SM OVC027 00/M03 A3034 RMK AO2 T00021032
Pressure 30.34 in
Visibility 10.0 miles
Clouds Overcast 2700 ft
Windchill 33 °F
Dew Point 25 °F
Humidity 71%
Rainfall 0.00 in
Snow Depth Not available.
7:07 AM 4:31 PM
Waxing Crescent, 15% visible
METAR KC75 031415Z AUTO 01005KT 10SM OVC027 00/M03 A3034 RMK AO2 T00021032

10-Day Weather Forecast

Almanac

Astronomy

Dec. 03, 2016 Rise Set
Actual Time
Civil Twilight
Nautical Twilight
Astronomical Twilight
Moon
Length of Visible Light
Length of Day
Tomorrow will be .
, % of the Moon is Illuminated

Today's Extremes

State Highs State Lows

Community

WunderPhotos

Upload Photos

1,955,446 photos uploaded!

WunderBlog® & News

Nearby

Air Quality

  Air Quality AQ Index Pollutant
Not available.

Snow Depth

Station Depth Elevation

Earthquake Activity

City Distance Mag. Time & Date
Minimum magnitude displayed is 2.5.

Coastal Water Temperatures

Place Temperature

Stations

Nearby Weather Stations

Station Location Temp. Windchill Dew Point Humidity Wind Precip. Elev Updated Type
                   

Watches & Warnings

There are currently no watches in effect.